Trine Charlotte — LMRY — position and weather

sailwx.info

Track history (hours):
 
Tides and Currents Weather Stations Pressure Air Temp Water Temp Dewpoint Dewpoint Depression Visibility Wind Speed Wind Dir Waves Ship Positions

Trine Charlotte

Last reported at 2018-Feb-22 08:59 UTC. Time now 2018-Feb-22 09:11 UTC.
Position N 67°16' E 014°21'.

Length 66 m; draft 4.6 m.

Type: Ship. MMSI: 257233000.

Date/timePositionNaut miles runAvg speedWind from/ knotsBaromVisibWave heightAir tempDewpointWater temp
2018-Feb-22 08:59N 67°16' E 014°21'0 0.0
2018-Feb-22 08:29N 67°16' E 014°21'0 0.0
2018-Feb-22 07:59N 67°16' E 014°21'0 0.0
2018-Feb-22 07:29N 67°16' E 014°21'0 0.0
2018-Feb-22 06:59N 67°16' E 014°21'0 0.0
2018-Feb-22 06:29N 67°16' E 014°21'0 0.0
2018-Feb-22 05:59N 67°16' E 014°21'0 0.0
2018-Feb-22 05:29N 67°16' E 014°21'0 0.0
2018-Feb-22 04:59N 67°16' E 014°21'0 0.0
2018-Feb-22 04:29N 67°16' E 014°21'0 0.0
2018-Feb-22 03:59N 67°16' E 014°21'0 0.0
2018-Feb-22 03:29N 67°16' E 014°21'0 0.0
2018-Feb-22 02:59N 67°16' E 014°21'0 0.0
2018-Feb-22 02:29N 67°16' E 014°21'0 0.0
2018-Feb-22 01:59N 67°16' E 014°21'0 0.0
2018-Feb-22 01:29N 67°16' E 014°21'0 0.0
2018-Feb-22 00:59N 67°16' E 014°21'0 0.0
2018-Feb-22 00:29N 67°16' E 014°21'0 0.0
2018-Feb-21 23:59N 67°16' E 014°21'0 0.0
2018-Feb-21 23:29N 67°16' E 014°21'0 0.0
2018-Feb-21 22:59N 67°16' E 014°21'0 0.0
2018-Feb-21 22:29N 67°16' E 014°21'0 0.0
2018-Feb-21 21:59N 67°16' E 014°21'0 0.0
2018-Feb-21 21:29N 67°16' E 014°21'0 0.0
2018-Feb-21 20:59N 67°16' E 014°21'0 0.0
2018-Feb-21 20:29N 67°16' E 014°21'0 0.0
2018-Feb-21 19:59N 67°16' E 014°21'0 0.0
2018-Feb-21 19:29N 67°16' E 014°21'1 2.5
2018-Feb-21 19:00N 67°16' E 014°18'4 7.8
2018-Feb-21 18:30N 67°13' E 014°11'4 8.5
2018-Feb-21 18:00N 67°10' E 014°03'4 8.9
2018-Feb-21 17:30N 67°06' E 013°58'4 8.5
2018-Feb-21 17:00N 67°03' E 013°51'4 8.8
2018-Feb-21 16:30N 67°00' E 013°41'4 8.7
2018-Feb-21 16:00N 66°58' E 013°32'4 7.4
2018-Feb-21 15:30N 66°55' E 013°28'4 8.7
2018-Feb-21 15:00N 66°52' E 013°20'4 8.5
2018-Feb-21 14:30N 66°48' E 013°15'4 8.8
2018-Feb-21 14:00N 66°44' E 013°11'5 8.8
2018-Feb-21 13:29N 66°39' E 013°07'4 8.7
2018-Feb-21 13:00N 66°35' E 013°05'4 7.4
2018-Feb-21 12:29N 66°32' E 012°59'4 8.6
2018-Feb-21 12:00N 66°28' E 012°59'4 8.7
2018-Feb-21 11:30N 66°24' E 012°58'5 8.9
2018-Feb-21 11:00N 66°19' E 012°57'5 8.7
2018-Feb-21 10:28N 66°15' E 012°54'4 8.2
2018-Feb-21 10:00N 66°11' E 012°51'4 7.5
2018-Feb-21 09:30N 66°08' E 012°47'4 8.1
2018-Feb-21 09:00N 66°05' E 012°40'4 8.2
2018-Feb-21 08:30N 66°02' E 012°34'4 8.7
2018-Feb-21 08:00N 65°58' E 012°28'4 8.9
2018-Feb-21 07:30N 65°54' E 012°22'4 8.5
2018-Feb-21 07:00N 65°50' E 012°21'4 8.3
2018-Feb-21 06:30N 65°46' E 012°19'4 8.5
2018-Feb-21 06:00N 65°42' E 012°16'4 8.8
2018-Feb-21 05:30N 65°38' E 012°13'4 8.5
2018-Feb-21 05:00N 65°34' E 012°07'4 8.3
2018-Feb-21 04:29N 65°31' E 012°01'4 8.7
2018-Feb-21 04:00N 65°27' E 011°56'4 8.5
2018-Feb-21 03:30N 65°23' E 011°59'3 6.7
2018-Feb-21 03:00N 65°20' E 012°01'4 9.1
2018-Feb-21 02:30N 65°15' E 011°57'4 8.9
2018-Feb-21 02:00N 65°12' E 011°52'5 9.0
2018-Feb-21 01:29N 65°07' E 011°49'4 8.9
2018-Feb-21 01:00N 65°03' E 011°44'4 8.6
2018-Feb-21 00:30N 65°00' E 011°37'4 8.5
2018-Feb-21 00:00N 64°57' E 011°30'4 8.8
2018-Feb-20 23:31N 64°54' E 011°22'5 9.4
2018-Feb-20 23:01N 64°51' E 011°14'5 9.1
2018-Feb-20 22:30N 64°48' E 011°06'4 8.4
2018-Feb-20 22:00N 64°44' E 011°07'4 8.9
2018-Feb-20 21:30N 64°39' E 011°03'4 8.2
2018-Feb-20 21:00N 64°35' E 011°03'5 9.5
2018-Feb-20 20:30N 64°31' E 011°09'5 9.0
2018-Feb-20 19:59N 64°29' E 011°18'4 9.2
2018-Feb-20 19:30N 64°27' E 011°27'2 3.3
2018-Feb-20 18:59N 64°27' E 011°31'0 0.0
2018-Feb-20 18:29N 64°27' E 011°31'0 0.0
2018-Feb-20 17:59N 64°27' E 011°31'0 0.0
2018-Feb-20 17:29N 64°27' E 011°31'0 0.0
2018-Feb-20 16:59N 64°27' E 011°31'0 0.0
2018-Feb-20 16:29N 64°27' E 011°31'2 3.7
2018-Feb-20 16:00N 64°27' E 011°27'4 8.3
2018-Feb-20 15:30N 64°29' E 011°18'4 7.9
2018-Feb-20 15:00N 64°31' E 011°10'4 8.3
2018-Feb-20 14:30N 64°34' E 011°05'4 7.3
2018-Feb-20 14:00N 64°37' E 011°01'4 8.6
2018-Feb-20 13:30N 64°41' E 011°06'4 8.5
2018-Feb-20 13:01N 64°45' E 011°06'4 7.8
2018-Feb-20 12:30N 64°49' E 011°09'4 8.4
2018-Feb-20 12:01N 64°52' E 011°16'4 8.2
2018-Feb-20 11:31N 64°55' E 011°23'5 9.2
2018-Feb-20 11:00N 64°58' E 011°31'4 9.0
2018-Feb-20 10:31N 65°01' E 011°39'4 8.9
2018-Feb-20 10:00N 65°04' E 011°45'4 8.9
2018-Feb-20 09:30N 65°08' E 011°49'5 9.1
2018-Feb-20 09:01N 65°13' E 011°53'5 8.8
2018-Feb-20 08:30N 65°17' E 011°58'5 9.1
2018-Feb-20 08:00N 65°21' E 012°03'4 8.0
2018-Feb-20 07:30N 65°24' E 011°58'4 8.3
2018-Feb-20 07:00N 65°29' E 011°58'5 9.6
2018-Feb-20 06:30N 65°33' E 012°03'5 9.4
2018-Feb-20 06:00N 65°36' E 012°11'5 9.2
2018-Feb-20 05:30N 65°41' E 012°15'5 9.6
2018-Feb-20 05:00N 65°45' E 012°18'5 9.4
2018-Feb-20 04:30N 65°50' E 012°21'4 8.8
2018-Feb-20 04:00N 65°54' E 012°22'4 9.0
2018-Feb-20 03:30N 65°58' E 012°27'5 9.3
2018-Feb-20 03:00N 66°02' E 012°34'5 9.3
2018-Feb-20 02:30N 66°05' E 012°42'5 9.3
2018-Feb-20 02:00N 66°09' E 012°49'5 9.0
2018-Feb-20 01:30N 66°13' E 012°53'5 9.1
2018-Feb-20 01:00N 66°18' E 012°56'4 8.6
2018-Feb-20 00:30N 66°22' E 012°58'5 9.3
2018-Feb-20 00:00N 66°26' E 012°59'4 9.0
2018-Feb-19 23:30N 66°31' E 012°58'4 8.2
2018-Feb-19 22:59N 66°34' E 013°04'4 9.0
2018-Feb-19 22:30N 66°39' E 013°06'5 9.3
2018-Feb-19 22:00N 66°43' E 013°11'5 9.3
2018-Feb-19 21:30N 66°47' E 013°15'5 9.1
2018-Feb-19 21:00N 66°51' E 013°20'5 9.1
2018-Feb-19 20:30N 66°55' E 013°28'4 8.0
2018-Feb-19 20:00N 66°58' E 013°33'5 9.3
2018-Feb-19 19:30N 67°01' E 013°42'5 9.1
2018-Feb-19 19:00N 67°03' E 013°52'5 9.3
2018-Feb-19 18:30N 67°07' E 013°60'5 9.0
2018-Feb-19 18:00N 67°11' E 014°04'5 9.3
2018-Feb-19 17:30N 67°15' E 014°10'5 9.3
2018-Feb-19 17:00N 67°19' E 014°17'4 9.0
2018-Feb-19 16:30N 67°23' E 014°24'4 8.8
2018-Feb-19 16:00N 67°27' E 014°28'5 9.2
2018-Feb-19 15:30N 67°31' E 014°30'5 9.2
2018-Feb-19 15:00N 67°36' E 014°30'5 9.0
2018-Feb-19 14:29N 67°41' E 014°31'4 8.8
2018-Feb-19 14:00N 67°45' E 014°31'4 8.5
2018-Feb-19 13:29N 67°49' E 014°35'4 9.2
2018-Feb-19 13:00N 67°52' E 014°44'5 9.4
2018-Feb-19 12:30N 67°54' E 014°55'5 9.1
2018-Feb-19 12:00N 67°54' E 015°07'2 3.1
2018-Feb-19 11:30N 67°54' E 015°11'0 0.0
2018-Feb-19 11:00N 67°54' E 015°11'0 0.0
2018-Feb-19 10:30N 67°54' E 015°11'0 0.0
2018-Feb-19 10:00N 67°54' E 015°11'0 0.0
2018-Feb-19 09:30N 67°54' E 015°11'0 0.0
2018-Feb-19 09:00N 67°54' E 015°11'0 0.0
2018-Feb-19 08:30N 67°54' E 015°11'0 0.0
2018-Feb-19 08:00N 67°54' E 015°11'0 0.0
2018-Feb-19 07:30N 67°54' E 015°11'0 0.0
2018-Feb-19 07:00N 67°54' E 015°11'0 0.0
2018-Feb-19 06:30N 67°54' E 015°11'0 0.0
2018-Feb-19 06:00N 67°54' E 015°11'0 0.0
2018-Feb-19 05:30N 67°54' E 015°11'0 0.0
2018-Feb-19 05:00N 67°54' E 015°11'0 0.0
2018-Feb-19 04:30N 67°54' E 015°11'0 0.0
2018-Feb-19 04:00N 67°54' E 015°11'0 0.0
2018-Feb-19 03:30N 67°54' E 015°11'0 0.0
2018-Feb-19 03:00N 67°54' E 015°11'0 0.0
2018-Feb-19 02:30N 67°54' E 015°11'0 0.0
2018-Feb-19 02:00N 67°54' E 015°11'0 0.0
2018-Feb-19 01:30N 67°54' E 015°11'0 0.0
2018-Feb-19 01:00N 67°54' E 015°11'0 0.0
2018-Feb-19 00:30N 67°54' E 015°11'0 0.0
2018-Feb-19 00:00N 67°54' E 015°11'0 0.0
2018-Feb-18 23:30N 67°54' E 015°11'0 0.0
2018-Feb-18 23:00N 67°54' E 015°11'0 0.0
2018-Feb-18 22:30N 67°54' E 015°11'0 0.0
2018-Feb-18 22:00N 67°54' E 015°11'0 0.0
2018-Feb-18 21:30N 67°54' E 015°11'0 0.0
2018-Feb-18 21:00N 67°54' E 015°11'0 0.0
2018-Feb-18 20:30N 67°54' E 015°11'0 0.0
2018-Feb-18 19:59N 67°54' E 015°11'0 0.0
2018-Feb-18 19:30N 67°54' E 015°11'0 0.0
2018-Feb-18 19:00N 67°54' E 015°11'0 0.0
2018-Feb-18 18:30N 67°54' E 015°11'0 0.0
2018-Feb-18 18:00N 67°54' E 015°11'0 0.0
2018-Feb-18 17:29N 67°54' E 015°11'0 0.0
2018-Feb-18 17:00N 67°54' E 015°11'0 0.0
2018-Feb-18 16:30N 67°54' E 015°11'0 0.2
2018-Feb-18 16:00N 67°54' E 015°12'3 6.7
2018-Feb-18 15:30N 67°56' E 015°19'4 8.0
2018-Feb-18 15:00N 67°60' E 015°18'4 8.2
2018-Feb-18 14:30N 68°03' E 015°13'4 8.5
2018-Feb-18 14:00N 68°06' E 015°03'4 8.4
2018-Feb-18 13:31N 68°08' E 014°54'4 8.3
2018-Feb-18 13:01N 68°10' E 014°45'4 8.3
2018-Feb-18 12:30N 68°12' E 014°34'2 4.5
2018-Feb-18 11:59N 68°12' E 014°28'0 0.0
2018-Feb-18 11:29N 68°12' E 014°28'0 0.0
2018-Feb-18 10:59N 68°12' E 014°28'0 0.0
2018-Feb-18 10:29N 68°12' E 014°28'0 0.0
2018-Feb-18 09:59N 68°12' E 014°28'0 0.0
2018-Feb-18 09:29N 68°12' E 014°28'0 0.0
2018-Feb-18 08:59N 68°12' E 014°28'0 0.0
2018-Feb-18 08:29N 68°12' E 014°28'0 0.7
2018-Feb-18 07:59N 68°12' E 014°29'4 8.7
2018-Feb-18 07:30N 68°08' E 014°29'5 9.1
2018-Feb-18 07:00N 68°03' E 014°29'5 8.9
2018-Feb-18 06:29N 67°59' E 014°28'4 8.7
2018-Feb-18 06:00N 67°55' E 014°30'5 9.2
2018-Feb-18 05:30N 67°50' E 014°30'4 8.6
2018-Feb-18 05:00N 67°46' E 014°32'4 8.6
2018-Feb-18 04:30N 67°42' E 014°31'4 8.9
2018-Feb-18 04:00N 67°37' E 014°35'5 9.7
2018-Feb-18 03:30N 67°37' E 014°48'5 9.6
2018-Feb-18 03:00N 67°36' E 015°01'15 9.3
2018-Feb-18 01:21N 67°26' E 015°31'3 9.7
2018-Feb-18 01:00N 67°23' E 015°35'1 2.5
2018-Feb-18 00:29N 67°22' E 015°35'0 0.0
2018-Feb-17 23:59N 67°22' E 015°35'0 0.0
2018-Feb-17 23:29N 67°22' E 015°35'0 0.0
2018-Feb-17 22:59N 67°22' E 015°35'0 0.0
2018-Feb-17 22:29N 67°22' E 015°35'0 0.0
2018-Feb-17 21:59N 67°22' E 015°35'0 0.0
2018-Feb-17 21:20N 67°22' E 015°35'0 0.0
2018-Feb-17 20:50N 67°22' E 015°35'0 0.0
2018-Feb-17 20:20N 67°22' E 015°35'0 0.0
2018-Feb-17 19:53N 67°22' E 015°35'0 0.0
2018-Feb-17 19:23N 67°22' E 015°35'0 0.0
2018-Feb-17 18:53N 67°22' E 015°35'0 0.0
2018-Feb-17 18:23N 67°22' E 015°35'0 0.6
2018-Feb-17 18:00N 67°22' E 015°35'4 7.9
2018-Feb-17 17:30N 67°26' E 015°32'11 7.4
2018-Feb-17 16:00N 67°34' E 015°11'4 7.8
2018-Feb-17 15:30N 67°36' E 015°03'4 8.3
2018-Feb-17 15:00N 67°37' E 014°52'4 8.1
2018-Feb-17 14:30N 67°37' E 014°42'4 7.9
2018-Feb-17 14:00N 67°38' E 014°31'4 7.9
2018-Feb-17 13:30N 67°39' E 014°22'4 8.3
2018-Feb-17 13:00N 67°42' E 014°14'4 8.9
2018-Feb-17 12:30N 67°46' E 014°08'5 9.2
2018-Feb-17 12:00N 67°50' E 014°02'5 9.2
2018-Feb-17 11:29N 67°54' E 013°55'4 9.0
2018-Feb-17 11:00N 67°57' E 013°48'5 8.8
2018-Feb-17 10:29N 68°01' E 013°42'4 8.5
2018-Feb-17 09:59N 68°05' E 013°36'3 5.9
2018-Feb-17 09:29N 68°08' E 013°34'0 0.0
2018-Feb-17 08:59N 68°08' E 013°34'0 0.0
2018-Feb-17 08:28N 68°08' E 013°34'0 0.0
2018-Feb-17 07:58N 68°08' E 013°34'0 0.0
2018-Feb-17 07:30N 68°08' E 013°34'0 0.0
2018-Feb-17 07:00N 68°08' E 013°34'0 0.0
2018-Feb-17 06:30N 68°08' E 013°34'0 0.0
2018-Feb-17 06:00N 68°08' E 013°34'0 0.0
2018-Feb-17 05:30N 68°08' E 013°34'0 0.0
2018-Feb-17 05:00N 68°08' E 013°34'0 0.0
2018-Feb-17 04:29N 68°08' E 013°34'0 0.0
2018-Feb-17 04:00N 68°08' E 013°34'2 3.4
2018-Feb-17 03:30N 68°06' E 013°36'3 6.7
2018-Feb-17 03:00N 68°04' E 013°43'5 9.2
2018-Feb-17 02:29N 68°06' E 013°55'5 9.3
2018-Feb-17 02:00N 68°09' E 014°04'4 8.1
2018-Feb-17 01:29N 68°12' E 014°10'4 7.5
2018-Feb-17 01:00N 68°16' E 014°14'3 6.0
2018-Feb-17 00:29N 68°19' E 014°17'4 7.8
2018-Feb-17 00:00N 68°22' E 014°19'4 8.7
2018-Feb-16 23:30N 68°25' E 014°27'4 8.7
2018-Feb-16 23:00N 68°27' E 014°37'4 8.7
2018-Feb-16 22:30N 68°29' E 014°49'4 8.9
2018-Feb-16 22:00N 68°31' E 014°59'5 9.1
2018-Feb-16 21:30N 68°34' E 015°09'5 9.2
2018-Feb-16 21:00N 68°37' E 015°18'4 9.1
2018-Feb-16 20:31N 68°40' E 015°26'5 9.0
2018-Feb-16 20:00N 68°45' E 015°26'5 9.2
2018-Feb-16 19:29N 68°50' E 015°28'4 9.2
2018-Feb-16 19:01N 68°54' E 015°33'5 9.1
2018-Feb-16 18:31N 68°58' E 015°38'5 9.1
2018-Feb-16 18:00N 68°59' E 015°50'4 8.7
2018-Feb-16 17:30N 69°02' E 015°60'4 8.4
2018-Feb-16 17:00N 69°05' E 016°07'5 8.8
2018-Feb-16 16:29N 69°09' E 016°10'4 8.9
2018-Feb-16 15:59N 69°14' E 016°12'4 8.7
2018-Feb-16 15:30N 69°18' E 016°13'2 4.3
2018-Feb-16 14:59N 69°19' E 016°08'0 0.0
2018-Feb-16 14:29N 69°19' E 016°08'0 0.0
2018-Feb-16 14:00N 69°19' E 016°08'0 0.0
2018-Feb-16 13:30N 69°19' E 016°08'0 0.0
2018-Feb-16 13:00N 69°19' E 016°08'2 4.4
2018-Feb-16 12:30N 69°18' E 016°12'4 8.7
2018-Feb-16 12:00N 69°13' E 016°13'5 9.0
2018-Feb-16 11:29N 69°09' E 016°12'4 9.2
2018-Feb-16 11:00N 69°04' E 016°11'5 9.1
2018-Feb-16 10:30N 68°60' E 016°10'4 8.5
2018-Feb-16 10:00N 68°56' E 016°16'5 9.1
2018-Feb-16 09:30N 68°53' E 016°25'4 9.0
2018-Feb-16 09:00N 68°51' E 016°36'3 6.0
2018-Feb-16 08:30N 68°48' E 016°33'0 0.0
2018-Feb-16 08:00N 68°48' E 016°33'0 0.0
2018-Feb-16 07:30N 68°48' E 016°33'0 0.0
2018-Feb-16 06:59N 68°48' E 016°33'0 0.0
2018-Feb-16 06:30N 68°48' E 016°33'0 0.0
2018-Feb-16 06:00N 68°48' E 016°33'2 3.9
2018-Feb-16 05:30N 68°49' E 016°37'5 9.3
2018-Feb-16 05:00N 68°52' E 016°47'5 9.4
2018-Feb-16 04:30N 68°55' E 016°57'5 9.4
2018-Feb-16 03:59N 68°58' E 017°07'5 9.6
2018-Feb-16 03:30N 69°01' E 017°17'5 9.6
2018-Feb-16 03:00N 69°05' E 017°24'5 9.4
2018-Feb-16 02:30N 69°07' E 017°36'5 9.7
2018-Feb-16 01:58N 69°09' E 017°50'4 9.5
2018-Feb-16 01:30N 69°11' E 018°00'4 7.7
2018-Feb-16 01:00N 69°15' E 017°58'4 8.9
2018-Feb-16 00:29N 69°19' E 018°01'4 8.4
2018-Feb-16 00:00N 69°23' E 018°06'5 9.2
2018-Feb-15 23:30N 69°28' E 018°07'4 8.9
2018-Feb-15 23:00N 69°30' E 018°18'5 9.1
2018-Feb-15 22:29N 69°32' E 018°31'4 8.7
2018-Feb-15 22:00N 69°33' E 018°42'4 6.9
2018-Feb-15 21:30N 69°35' E 018°50'4 8.9
2018-Feb-15 20:59N 69°39' E 018°58'1 1.1
2018-Feb-15 20:30N 69°39' E 018°58'0 0.0
2018-Feb-15 20:00N 69°39' E 018°58'0 0.0
2018-Feb-15 19:30N 69°39' E 018°58'0 0.0
2018-Feb-15 19:00N 69°39' E 018°58'0 0.0
2018-Feb-15 18:30N 69°39' E 018°58'0 0.0
2018-Feb-15 18:00N 69°39' E 018°58'0 0.0
2018-Feb-15 17:30N 69°39' E 018°58'0 0.0
2018-Feb-15 17:01N 69°39' E 018°58'0 0.0
2018-Feb-15 16:31N 69°39' E 018°58'0 0.0
2018-Feb-15 16:00N 69°39' E 018°58'0 0.0
2018-Feb-15 15:30N 69°39' E 018°58'0 0.0
2018-Feb-15 15:00N 69°39' E 018°58'0 0.2
2018-Feb-15 14:30N 69°39' E 018°58'1 1.2
2018-Feb-15 14:00N 69°40' E 018°59'0 0.1
2018-Feb-15 13:30N 69°40' E 018°59'1 1.0
2018-Feb-15 12:59N 69°40' E 019°00'4 8.4
2018-Feb-15 12:29N 69°44' E 019°05'4 8.0
2018-Feb-15 12:00N 69°47' E 019°13'4 8.7
2018-Feb-15 11:30N 69°50' E 019°22'5 9.0
2018-Feb-15 11:00N 69°54' E 019°28'5 9.0
2018-Feb-15 10:30N 69°57' E 019°37'4 8.2
2018-Feb-15 10:00N 70°01' E 019°42'4 7.0
2018-Feb-15 09:30N 70°03' E 019°50'0 0.4
2018-Feb-15 09:00N 70°03' E 019°49'0 0.0
2018-Feb-15 08:30N 70°03' E 019°49'0 0.0
2018-Feb-15 08:00N 70°03' E 019°49'0 0.0
2018-Feb-15 07:30N 70°03' E 019°49'0 0.0
2018-Feb-15 07:00N 70°03' E 019°49'0 0.0
2018-Feb-15 06:30N 70°03' E 019°49'0 0.0
2018-Feb-15 06:00N 70°03' E 019°49'0 0.0
2018-Feb-15 05:30N 70°03' E 019°49'0 0.0
2018-Feb-15 05:00N 70°03' E 019°49'0 0.0
2018-Feb-15 04:30N 70°03' E 019°49'0 0.0
2018-Feb-15 04:00N 70°03' E 019°49'0 0.0
2018-Feb-15 03:29N 70°03' E 019°49'0 0.0
2018-Feb-15 03:00N 70°03' E 019°49'0 0.0
2018-Feb-15 02:30N 70°03' E 019°49'0 0.0
2018-Feb-15 02:00N 70°03' E 019°49'0 0.0
2018-Feb-15 01:30N 70°03' E 019°49'2 4.7
2018-Feb-15 01:00N 70°02' E 019°43'4 8.8
2018-Feb-15 00:30N 69°58' E 019°40'5 9.1
2018-Feb-15 00:00N 69°55' E 019°30'5 9.0
2018-Feb-14 23:29N 69°51' E 019°24'4 9.0
2018-Feb-14 23:00N 69°47' E 019°16'5 9.7
2018-Feb-14 22:29N 69°44' E 019°05'5 9.3
2018-Feb-14 21:59N 69°40' E 018°59'1 1.2
2018-Feb-14 21:30N 69°40' E 018°58'0 0.0
2018-Feb-14 21:00N 69°40' E 018°58'0 0.0
2018-Feb-14 20:30N 69°40' E 018°58'0 0.0
2018-Feb-14 20:00N 69°40' E 018°58'0 0.0
2018-Feb-14 19:30N 69°40' E 018°58'0 0.0
2018-Feb-14 19:00N 69°40' E 018°58'0 0.0
2018-Feb-14 18:30N 69°40' E 018°58'0 0.0
2018-Feb-14 18:00N 69°40' E 018°58'0 0.0
2018-Feb-14 17:30N 69°40' E 018°58'0 0.0
2018-Feb-14 17:00N 69°40' E 018°58'0 0.0
2018-Feb-14 16:29N 69°40' E 018°58'0 0.0
2018-Feb-14 16:00N 69°40' E 018°58'0 0.0
2018-Feb-14 15:30N 69°40' E 018°58'0 0.0
2018-Feb-14 15:00N 69°40' E 018°58'0 0.0
2018-Feb-14 14:30N 69°40' E 018°58'0 0.0
2018-Feb-14 13:59N 69°40' E 018°58'3 5.5
2018-Feb-14 13:30N 69°42' E 019°02'4 8.5
2018-Feb-14 13:00N 69°45' E 019°09'4 8.7
2018-Feb-14 12:30N 69°47' E 019°20'4 8.6
2018-Feb-14 12:00N 69°48' E 019°32'4 8.3
2018-Feb-14 11:30N 69°49' E 019°44'5 9.0
2018-Feb-14 11:00N 69°44' E 019°45'5 9.0
2018-Feb-14 10:29N 69°40' E 019°45'3 6.4
2018-Feb-14 09:59N 69°37' E 019°44'0 0.0
2018-Feb-14 09:29N 69°37' E 019°44'0 0.0
2018-Feb-14 08:56N 69°37' E 019°44'0 0.0
2018-Feb-14 08:29N 69°37' E 019°44'0 0.0
2018-Feb-14 07:59N 69°37' E 019°44'0 0.0
2018-Feb-14 07:29N 69°37' E 019°44'0 0.0
2018-Feb-14 06:59N 69°37' E 019°44'0 0.0
2018-Feb-14 06:30N 69°37' E 019°44'0 0.0
2018-Feb-14 06:00N 69°37' E 019°44'1 1.7
2018-Feb-14 05:30N 69°37' E 019°45'0 0.5
2018-Feb-14 05:00N 69°38' E 019°45'0 0.9
2018-Feb-14 04:30N 69°38' E 019°46'2 4.6
2018-Feb-14 03:59N 69°40' E 019°45'3 5.7
2018-Feb-14 03:30N 69°43' E 019°46'3 6.0
2018-Feb-14 03:00N 69°46' E 019°48'3 5.6
2018-Feb-14 02:30N 69°48' E 019°52'4 7.4
2018-Feb-14 02:00N 69°52' E 019°57'4 8.8
2018-Feb-14 01:30N 69°55' E 020°03'4 8.8
2018-Feb-14 01:00N 69°58' E 020°13'4 8.5
2018-Feb-14 00:30N 70°00' E 020°24'4 7.8
2018-Feb-14 00:00N 70°01' E 020°35'4 7.8
2018-Feb-13 23:29N 70°03' E 020°46'4 8.3
2018-Feb-13 22:59N 70°05' E 020°56'4 9.0
2018-Feb-13 22:30N 70°09' E 021°02'4 8.5
2018-Feb-13 22:00N 70°13' E 021°07'4 8.2
2018-Feb-13 21:29N 70°16' E 021°16'4 8.9
2018-Feb-13 20:59N 70°19' E 021°26'4 8.9
2018-Feb-13 20:30N 70°22' E 021°35'4 8.6
2018-Feb-13 20:00N 70°24' E 021°45'5 8.9
2018-Feb-13 19:30N 70°25' E 021°58'4 9.1
2018-Feb-13 19:00N 70°27' E 022°11'5 9.5
2018-Feb-13 18:30N 70°28' E 022°25'5 9.6
2018-Feb-13 17:59N 70°29' E 022°39'4 8.7
2018-Feb-13 17:30N 70°30' E 022°51'4 9.0
2018-Feb-13 17:00N 70°33' E 023°03'4 8.9
2018-Feb-13 16:30N 70°35' E 023°13'5 9.1
2018-Feb-13 15:59N 70°38' E 023°24'5 9.3
2018-Feb-13 15:29N 70°40' E 023°38'1 1.8
2018-Feb-13 14:59N 70°40' E 023°40'0 0.0
2018-Feb-13 14:29N 70°40' E 023°40'0 0.0
2018-Feb-13 13:59N 70°40' E 023°40'0 0.0
2018-Feb-13 13:26N 70°40' E 023°40'0 0.0
2018-Feb-13 12:59N 70°40' E 023°40'0 0.0
2018-Feb-13 12:29N 70°40' E 023°40'0 0.0
2018-Feb-13 11:59N 70°40' E 023°40'0 0.0
2018-Feb-13 11:29N 70°40' E 023°40'0 0.0
2018-Feb-13 10:59N 70°40' E 023°40'0 0.0
2018-Feb-13 10:29N 70°40' E 023°40'0 0.0
2018-Feb-13 09:59N 70°40' E 023°40'0 0.0
2018-Feb-13 09:29N 70°40' E 023°40'0 0.0
2018-Feb-13 08:59N 70°40' E 023°40'0 0.0
2018-Feb-13 08:29N 70°40' E 023°40'0 0.0
2018-Feb-13 07:59N 70°40' E 023°40'0 0.3
2018-Feb-13 07:29N 70°40' E 023°40'0 0.0
2018-Feb-13 06:59N 70°40' E 023°40'0 0.0
2018-Feb-13 06:29N 70°40' E 023°40'0 0.0
2018-Feb-13 05:59N 70°40' E 023°40'0 0.0
2018-Feb-13 05:29N 70°40' E 023°40'0 0.0
2018-Feb-13 04:59N 70°40' E 023°40'0 0.0
2018-Feb-13 04:29N 70°40' E 023°40'0 0.0
2018-Feb-13 03:59N 70°40' E 023°40'0 0.0
2018-Feb-13 03:29N 70°40' E 023°40'0 0.0
2018-Feb-13 02:59N 70°40' E 023°40'0 0.0
2018-Feb-13 02:29N 70°40' E 023°40'0 0.0
2018-Feb-13 01:59N 70°40' E 023°40'0 0.0
2018-Feb-13 01:29N 70°40' E 023°40'0 0.0
2018-Feb-13 00:59N 70°40' E 023°40'0 0.0
2018-Feb-13 00:29N 70°40' E 023°40'0 0.0
2018-Feb-12 23:59N 70°40' E 023°40'0 0.0
2018-Feb-12 23:29N 70°40' E 023°40'4 7.5
2018-Feb-12 23:00N 70°37' E 023°36'5 9.4
2018-Feb-12 22:30N 70°32' E 023°38'5 9.2
2018-Feb-12 21:59N 70°27' E 023°40'5 9.6
2018-Feb-12 21:30N 70°23' E 023°33'5 9.5
2018-Feb-12 21:01N 70°20' E 023°24'5 9.0
2018-Feb-12 20:31N 70°16' E 023°16'5 9.1
2018-Feb-12 20:00N 70°12' E 023°08'4 8.9
2018-Feb-12 19:30N 70°08' E 023°07'5 9.2
2018-Feb-12 19:00N 70°03' E 023°08'4 9.1
2018-Feb-12 18:30N 69°59' E 023°12'2 3.1
2018-Feb-12 18:00N 69°58' E 023°13'0 0.0
2018-Feb-12 17:30N 69°58' E 023°13'0 0.0
2018-Feb-12 16:59N 69°58' E 023°13'0 0.0
2018-Feb-12 16:30N 69°58' E 023°13'0 0.0
2018-Feb-12 16:00N 69°58' E 023°13'0 0.0
2018-Feb-12 15:30N 69°58' E 023°13'0 0.0
2018-Feb-12 14:59N 69°58' E 023°13'0 0.0
2018-Feb-12 14:30N 69°58' E 023°13'0 0.0
2018-Feb-12 13:59N 69°58' E 023°13'0 0.0
2018-Feb-12 13:30N 69°58' E 023°13'0 0.0
2018-Feb-12 13:00N 69°58' E 023°13'3 6.0
2018-Feb-12 12:30N 70°00' E 023°11'4 7.4
2018-Feb-12 12:00N 70°04' E 023°08'3 6.2
2018-Feb-12 11:30N 70°07' E 023°07'4 7.5
2018-Feb-12 11:00N 70°11' E 023°08'4 7.7
2018-Feb-12 10:29N 70°15' E 023°13'4 8.3
2018-Feb-12 10:00N 70°18' E 023°20'4 8.3
2018-Feb-12 09:30N 70°21' E 023°28'4 8.1
2018-Feb-12 09:00N 70°24' E 023°35'  
Track history (hours):
 
Tides and Currents Weather Stations Pressure Air Temp Water Temp Dewpoint Dewpoint Depression Visibility Wind Speed Wind Dir Waves Ship Positions

Trine Charlotte

Last reported at 2018-Feb-22 08:59 UTC. Time now 2018-Feb-22 09:11 UTC.
Position N 67°16' E 014°21'.

Length 66 m; draft 4.6 m.

Type: Ship. MMSI: 257233000.

Date/timePositionNaut miles runAvg speedWind from/ knotsBaromVisibWave heightAir tempDewpointWater temp
2018-Feb-22 08:59N 67°16' E 014°21'0 0.0
2018-Feb-22 08:29N 67°16' E 014°21'0 0.0
2018-Feb-22 07:59N 67°16' E 014°21'0 0.0
2018-Feb-22 07:29N 67°16' E 014°21'0 0.0
2018-Feb-22 06:59N 67°16' E 014°21'0 0.0
2018-Feb-22 06:29N 67°16' E 014°21'0 0.0
2018-Feb-22 05:59N 67°16' E 014°21'0 0.0
2018-Feb-22 05:29N 67°16' E 014°21'0 0.0
2018-Feb-22 04:59N 67°16' E 014°21'0 0.0
2018-Feb-22 04:29N 67°16' E 014°21'0 0.0
2018-Feb-22 03:59N 67°16' E 014°21'0 0.0
2018-Feb-22 03:29N 67°16' E 014°21'0 0.0
2018-Feb-22 02:59N 67°16' E 014°21'0 0.0
2018-Feb-22 02:29N 67°16' E 014°21'0 0.0
2018-Feb-22 01:59N 67°16' E 014°21'0 0.0
2018-Feb-22 01:29N 67°16' E 014°21'0 0.0
2018-Feb-22 00:59N 67°16' E 014°21'0 0.0
2018-Feb-22 00:29N 67°16' E 014°21'0 0.0
2018-Feb-21 23:59N 67°16' E 014°21'0 0.0
2018-Feb-21 23:29N 67°16' E 014°21'0 0.0
2018-Feb-21 22:59N 67°16' E 014°21'0 0.0
2018-Feb-21 22:29N 67°16' E 014°21'0 0.0
2018-Feb-21 21:59N 67°16' E 014°21'0 0.0
2018-Feb-21 21:29N 67°16' E 014°21'0 0.0
2018-Feb-21 20:59N 67°16' E 014°21'0 0.0
2018-Feb-21 20:29N 67°16' E 014°21'0 0.0
2018-Feb-21 19:59N 67°16' E 014°21'0 0.0
2018-Feb-21 19:29N 67°16' E 014°21'1 2.5
2018-Feb-21 19:00N 67°16' E 014°18'4 7.8
2018-Feb-21 18:30N 67°13' E 014°11'4 8.5
2018-Feb-21 18:00N 67°10' E 014°03'4 8.9
2018-Feb-21 17:30N 67°06' E 013°58'4 8.5
2018-Feb-21 17:00N 67°03' E 013°51'4 8.8
2018-Feb-21 16:30N 67°00' E 013°41'4 8.7
2018-Feb-21 16:00N 66°58' E 013°32'4 7.4
2018-Feb-21 15:30N 66°55' E 013°28'4 8.7
2018-Feb-21 15:00N 66°52' E 013°20'4 8.5
2018-Feb-21 14:30N 66°48' E 013°15'4 8.8
2018-Feb-21 14:00N 66°44' E 013°11'5 8.8
2018-Feb-21 13:29N 66°39' E 013°07'4 8.7
2018-Feb-21 13:00N 66°35' E 013°05'4 7.4
2018-Feb-21 12:29N 66°32' E 012°59'4 8.6
2018-Feb-21 12:00N 66°28' E 012°59'4 8.7
2018-Feb-21 11:30N 66°24' E 012°58'5 8.9
2018-Feb-21 11:00N 66°19' E 012°57'5 8.7
2018-Feb-21 10:28N 66°15' E 012°54'4 8.2
2018-Feb-21 10:00N 66°11' E 012°51'4 7.5
2018-Feb-21 09:30N 66°08' E 012°47'4 8.1
2018-Feb-21 09:00N 66°05' E 012°40'4 8.2
2018-Feb-21 08:30N 66°02' E 012°34'4 8.7
2018-Feb-21 08:00N 65°58' E 012°28'4 8.9
2018-Feb-21 07:30N 65°54' E 012°22'4 8.5
2018-Feb-21 07:00N 65°50' E 012°21'4 8.3
2018-Feb-21 06:30N 65°46' E 012°19'4 8.5
2018-Feb-21 06:00N 65°42' E 012°16'4 8.8
2018-Feb-21 05:30N 65°38' E 012°13'4 8.5
2018-Feb-21 05:00N 65°34' E 012°07'4 8.3
2018-Feb-21 04:29N 65°31' E 012°01'4 8.7
2018-Feb-21 04:00N 65°27' E 011°56'4 8.5
2018-Feb-21 03:30N 65°23' E 011°59'3 6.7
2018-Feb-21 03:00N 65°20' E 012°01'4 9.1
2018-Feb-21 02:30N 65°15' E 011°57'4 8.9
2018-Feb-21 02:00N 65°12' E 011°52'5 9.0
2018-Feb-21 01:29N 65°07' E 011°49'4 8.9
2018-Feb-21 01:00N 65°03' E 011°44'4 8.6
2018-Feb-21 00:30N 65°00' E 011°37'4 8.5
2018-Feb-21 00:00N 64°57' E 011°30'4 8.8
2018-Feb-20 23:31N 64°54' E 011°22'5 9.4
2018-Feb-20 23:01N 64°51' E 011°14'5 9.1
2018-Feb-20 22:30N 64°48' E 011°06'4 8.4
2018-Feb-20 22:00N 64°44' E 011°07'4 8.9
2018-Feb-20 21:30N 64°39' E 011°03'4 8.2
2018-Feb-20 21:00N 64°35' E 011°03'5 9.5
2018-Feb-20 20:30N 64°31' E 011°09'5 9.0
2018-Feb-20 19:59N 64°29' E 011°18'4 9.2
2018-Feb-20 19:30N 64°27' E 011°27'2 3.3
2018-Feb-20 18:59N 64°27' E 011°31'0 0.0
2018-Feb-20 18:29N 64°27' E 011°31'0 0.0
2018-Feb-20 17:59N 64°27' E 011°31'0 0.0
2018-Feb-20 17:29N 64°27' E 011°31'0 0.0
2018-Feb-20 16:59N 64°27' E 011°31'0 0.0
2018-Feb-20 16:29N 64°27' E 011°31'2 3.7
2018-Feb-20 16:00N 64°27' E 011°27'4 8.3
2018-Feb-20 15:30N 64°29' E 011°18'4 7.9
2018-Feb-20 15:00N 64°31' E 011°10'4 8.3
2018-Feb-20 14:30N 64°34' E 011°05'4 7.3
2018-Feb-20 14:00N 64°37' E 011°01'4 8.6
2018-Feb-20 13:30N 64°41' E 011°06'4 8.5
2018-Feb-20 13:01N 64°45' E 011°06'4 7.8
2018-Feb-20 12:30N 64°49' E 011°09'4 8.4
2018-Feb-20 12:01N 64°52' E 011°16'4 8.2
2018-Feb-20 11:31N 64°55' E 011°23'5 9.2
2018-Feb-20 11:00N 64°58' E 011°31'4 9.0
2018-Feb-20 10:31N 65°01' E 011°39'4 8.9
2018-Feb-20 10:00N 65°04' E 011°45'4 8.9
2018-Feb-20 09:30N 65°08' E 011°49'5 9.1
2018-Feb-20 09:01N 65°13' E 011°53'5 8.8
2018-Feb-20 08:30N 65°17' E 011°58'5 9.1
2018-Feb-20 08:00N 65°21' E 012°03'4 8.0
2018-Feb-20 07:30N 65°24' E 011°58'4 8.3
2018-Feb-20 07:00N 65°29' E 011°58'5 9.6
2018-Feb-20 06:30N 65°33' E 012°03'5 9.4
2018-Feb-20 06:00N 65°36' E 012°11'5 9.2
2018-Feb-20 05:30N 65°41' E 012°15'5 9.6
2018-Feb-20 05:00N 65°45' E 012°18'5 9.4
2018-Feb-20 04:30N 65°50' E 012°21'4 8.8
2018-Feb-20 04:00N 65°54' E 012°22'4 9.0
2018-Feb-20 03:30N 65°58' E 012°27'5 9.3
2018-Feb-20 03:00N 66°02' E 012°34'5 9.3
2018-Feb-20 02:30N 66°05' E 012°42'5 9.3
2018-Feb-20 02:00N 66°09' E 012°49'5 9.0
2018-Feb-20 01:30N 66°13' E 012°53'5 9.1
2018-Feb-20 01:00N 66°18' E 012°56'4 8.6
2018-Feb-20 00:30N 66°22' E 012°58'5 9.3
2018-Feb-20 00:00N 66°26' E 012°59'4 9.0
2018-Feb-19 23:30N 66°31' E 012°58'4 8.2
2018-Feb-19 22:59N 66°34' E 013°04'4 9.0
2018-Feb-19 22:30N 66°39' E 013°06'5 9.3
2018-Feb-19 22:00N 66°43' E 013°11'5 9.3
2018-Feb-19 21:30N 66°47' E 013°15'5 9.1
2018-Feb-19 21:00N 66°51' E 013°20'5 9.1
2018-Feb-19 20:30N 66°55' E 013°28'4 8.0
2018-Feb-19 20:00N 66°58' E 013°33'5 9.3
2018-Feb-19 19:30N 67°01' E 013°42'5 9.1
2018-Feb-19 19:00N 67°03' E 013°52'5 9.3
2018-Feb-19 18:30N 67°07' E 013°60'5 9.0
2018-Feb-19 18:00N 67°11' E 014°04'5 9.3
2018-Feb-19 17:30N 67°15' E 014°10'5 9.3
2018-Feb-19 17:00N 67°19' E 014°17'4 9.0
2018-Feb-19 16:30N 67°23' E 014°24'4 8.8
2018-Feb-19 16:00N 67°27' E 014°28'5 9.2
2018-Feb-19 15:30N 67°31' E 014°30'5 9.2
2018-Feb-19 15:00N 67°36' E 014°30'5 9.0
2018-Feb-19 14:29N 67°41' E 014°31'4 8.8
2018-Feb-19 14:00N 67°45' E 014°31'4 8.5
2018-Feb-19 13:29N 67°49' E 014°35'4 9.2
2018-Feb-19 13:00N 67°52' E 014°44'5 9.4
2018-Feb-19 12:30N 67°54' E 014°55'5 9.1
2018-Feb-19 12:00N 67°54' E 015°07'2 3.1
2018-Feb-19 11:30N 67°54' E 015°11'0 0.0
2018-Feb-19 11:00N 67°54' E 015°11'0 0.0
2018-Feb-19 10:30N 67°54' E 015°11'0 0.0
2018-Feb-19 10:00N 67°54' E 015°11'0 0.0
2018-Feb-19 09:30N 67°54' E 015°11'0 0.0
2018-Feb-19 09:00N 67°54' E 015°11'0 0.0
2018-Feb-19 08:30N 67°54' E 015°11'0 0.0
2018-Feb-19 08:00N 67°54' E 015°11'0 0.0
2018-Feb-19 07:30N 67°54' E 015°11'0 0.0
2018-Feb-19 07:00N 67°54' E 015°11'0 0.0
2018-Feb-19 06:30N 67°54' E 015°11'0 0.0
2018-Feb-19 06:00N 67°54' E 015°11'0 0.0
2018-Feb-19 05:30N 67°54' E 015°11'0 0.0
2018-Feb-19 05:00N 67°54' E 015°11'0 0.0
2018-Feb-19 04:30N 67°54' E 015°11'0 0.0
2018-Feb-19 04:00N 67°54' E 015°11'0 0.0
2018-Feb-19 03:30N 67°54' E 015°11'0 0.0
2018-Feb-19 03:00N 67°54' E 015°11'0 0.0
2018-Feb-19 02:30N 67°54' E 015°11'0 0.0
2018-Feb-19 02:00N 67°54' E 015°11'0 0.0
2018-Feb-19 01:30N 67°54' E 015°11'0 0.0
2018-Feb-19 01:00N 67°54' E 015°11'0 0.0
2018-Feb-19 00:30N 67°54' E 015°11'0 0.0
2018-Feb-19 00:00N 67°54' E 015°11'0 0.0
2018-Feb-18 23:30N 67°54' E 015°11'0 0.0
2018-Feb-18 23:00N 67°54' E 015°11'0 0.0
2018-Feb-18 22:30N 67°54' E 015°11'0 0.0
2018-Feb-18 22:00N 67°54' E 015°11'0 0.0
2018-Feb-18 21:30N 67°54' E 015°11'0 0.0
2018-Feb-18 21:00N 67°54' E 015°11'0 0.0
2018-Feb-18 20:30N 67°54' E 015°11'0 0.0
2018-Feb-18 19:59N 67°54' E 015°11'0 0.0
2018-Feb-18 19:30N 67°54' E 015°11'0 0.0
2018-Feb-18 19:00N 67°54' E 015°11'0 0.0
2018-Feb-18 18:30N 67°54' E 015°11'0 0.0
2018-Feb-18 18:00N 67°54' E 015°11'0 0.0
2018-Feb-18 17:29N 67°54' E 015°11'0 0.0
2018-Feb-18 17:00N 67°54' E 015°11'0 0.0
2018-Feb-18 16:30N 67°54' E 015°11'0 0.2
2018-Feb-18 16:00N 67°54' E 015°12'3 6.7
2018-Feb-18 15:30N 67°56' E 015°19'4 8.0
2018-Feb-18 15:00N 67°60' E 015°18'4 8.2
2018-Feb-18 14:30N 68°03' E 015°13'4 8.5
2018-Feb-18 14:00N 68°06' E 015°03'4 8.4
2018-Feb-18 13:31N 68°08' E 014°54'4 8.3
2018-Feb-18 13:01N 68°10' E 014°45'4 8.3
2018-Feb-18 12:30N 68°12' E 014°34'2 4.5
2018-Feb-18 11:59N 68°12' E 014°28'0 0.0
2018-Feb-18 11:29N 68°12' E 014°28'0 0.0
2018-Feb-18 10:59N 68°12' E 014°28'0 0.0
2018-Feb-18 10:29N 68°12' E 014°28'0 0.0
2018-Feb-18 09:59N 68°12' E 014°28'0 0.0
2018-Feb-18 09:29N 68°12' E 014°28'0 0.0
2018-Feb-18 08:59N 68°12' E 014°28'0 0.0
2018-Feb-18 08:29N 68°12' E 014°28'0 0.7
2018-Feb-18 07:59N 68°12' E 014°29'4 8.7
2018-Feb-18 07:30N 68°08' E 014°29'5 9.1
2018-Feb-18 07:00N 68°03' E 014°29'5 8.9
2018-Feb-18 06:29N 67°59' E 014°28'4 8.7
2018-Feb-18 06:00N 67°55' E 014°30'5 9.2
2018-Feb-18 05:30N 67°50' E 014°30'4 8.6
2018-Feb-18 05:00N 67°46' E 014°32'4 8.6
2018-Feb-18 04:30N 67°42' E 014°31'4 8.9
2018-Feb-18 04:00N 67°37' E 014°35'5 9.7
2018-Feb-18 03:30N 67°37' E 014°48'5 9.6
2018-Feb-18 03:00N 67°36' E 015°01'15 9.3
2018-Feb-18 01:21N 67°26' E 015°31'3 9.7
2018-Feb-18 01:00N 67°23' E 015°35'1 2.5
2018-Feb-18 00:29N 67°22' E 015°35'0 0.0
2018-Feb-17 23:59N 67°22' E 015°35'0 0.0
2018-Feb-17 23:29N 67°22' E 015°35'0 0.0
2018-Feb-17 22:59N 67°22' E 015°35'0 0.0
2018-Feb-17 22:29N 67°22' E 015°35'0 0.0
2018-Feb-17 21:59N 67°22' E 015°35'0 0.0
2018-Feb-17 21:20N 67°22' E 015°35'0 0.0
2018-Feb-17 20:50N 67°22' E 015°35'0 0.0
2018-Feb-17 20:20N 67°22' E 015°35'0 0.0
2018-Feb-17 19:53N 67°22' E 015°35'0 0.0
2018-Feb-17 19:23N 67°22' E 015°35'0 0.0
2018-Feb-17 18:53N 67°22' E 015°35'0 0.0
2018-Feb-17 18:23N 67°22' E 015°35'0 0.6
2018-Feb-17 18:00N 67°22' E 015°35'4 7.9
2018-Feb-17 17:30N 67°26' E 015°32'11 7.4
2018-Feb-17 16:00N 67°34' E 015°11'4 7.8
2018-Feb-17 15:30N 67°36' E 015°03'4 8.3
2018-Feb-17 15:00N 67°37' E 014°52'4 8.1
2018-Feb-17 14:30N 67°37' E 014°42'4 7.9
2018-Feb-17 14:00N 67°38' E 014°31'4 7.9
2018-Feb-17 13:30N 67°39' E 014°22'4 8.3
2018-Feb-17 13:00N 67°42' E 014°14'4 8.9
2018-Feb-17 12:30N 67°46' E 014°08'5 9.2
2018-Feb-17 12:00N 67°50' E 014°02'5 9.2
2018-Feb-17 11:29N 67°54' E 013°55'4 9.0
2018-Feb-17 11:00N 67°57' E 013°48'5 8.8
2018-Feb-17 10:29N 68°01' E 013°42'4 8.5
2018-Feb-17 09:59N 68°05' E 013°36'3 5.9
2018-Feb-17 09:29N 68°08' E 013°34'0 0.0
2018-Feb-17 08:59N 68°08' E 013°34'0 0.0
2018-Feb-17 08:28N 68°08' E 013°34'0 0.0
2018-Feb-17 07:58N 68°08' E 013°34'0 0.0
2018-Feb-17 07:30N 68°08' E 013°34'0 0.0
2018-Feb-17 07:00N 68°08' E 013°34'0 0.0
2018-Feb-17 06:30N 68°08' E 013°34'0 0.0
2018-Feb-17 06:00N 68°08' E 013°34'0 0.0
2018-Feb-17 05:30N 68°08' E 013°34'0 0.0
2018-Feb-17 05:00N 68°08' E 013°34'0 0.0
2018-Feb-17 04:29N 68°08' E 013°34'0 0.0
2018-Feb-17 04:00N 68°08' E 013°34'2 3.4
2018-Feb-17 03:30N 68°06' E 013°36'3 6.7
2018-Feb-17 03:00N 68°04' E 013°43'5 9.2
2018-Feb-17 02:29N 68°06' E 013°55'5 9.3
2018-Feb-17 02:00N 68°09' E 014°04'4 8.1
2018-Feb-17 01:29N 68°12' E 014°10'4 7.5
2018-Feb-17 01:00N 68°16' E 014°14'3 6.0
2018-Feb-17 00:29N 68°19' E 014°17'4 7.8
2018-Feb-17 00:00N 68°22' E 014°19'4 8.7
2018-Feb-16 23:30N 68°25' E 014°27'4 8.7
2018-Feb-16 23:00N 68°27' E 014°37'4 8.7
2018-Feb-16 22:30N 68°29' E 014°49'4 8.9
2018-Feb-16 22:00N 68°31' E 014°59'5 9.1
2018-Feb-16 21:30N 68°34' E 015°09'5 9.2
2018-Feb-16 21:00N 68°37' E 015°18'4 9.1
2018-Feb-16 20:31N 68°40' E 015°26'5 9.0
2018-Feb-16 20:00N 68°45' E 015°26'5 9.2
2018-Feb-16 19:29N 68°50' E 015°28'4 9.2
2018-Feb-16 19:01N 68°54' E 015°33'5 9.1
2018-Feb-16 18:31N 68°58' E 015°38'5 9.1
2018-Feb-16 18:00N 68°59' E 015°50'4 8.7
2018-Feb-16 17:30N 69°02' E 015°60'4 8.4
2018-Feb-16 17:00N 69°05' E 016°07'5 8.8
2018-Feb-16 16:29N 69°09' E 016°10'4 8.9
2018-Feb-16 15:59N 69°14' E 016°12'4 8.7
2018-Feb-16 15:30N 69°18' E 016°13'2 4.3
2018-Feb-16 14:59N 69°19' E 016°08'0 0.0
2018-Feb-16 14:29N 69°19' E 016°08'0 0.0
2018-Feb-16 14:00N 69°19' E 016°08'0 0.0
2018-Feb-16 13:30N 69°19' E 016°08'0 0.0
2018-Feb-16 13:00N 69°19' E 016°08'2 4.4
2018-Feb-16 12:30N 69°18' E 016°12'4 8.7
2018-Feb-16 12:00N 69°13' E 016°13'5 9.0
2018-Feb-16 11:29N 69°09' E 016°12'4 9.2
2018-Feb-16 11:00N 69°04' E 016°11'5 9.1
2018-Feb-16 10:30N 68°60' E 016°10'4 8.5
2018-Feb-16 10:00N 68°56' E 016°16'5 9.1
2018-Feb-16 09:30N 68°53' E 016°25'4 9.0
2018-Feb-16 09:00N 68°51' E 016°36'3 6.0
2018-Feb-16 08:30N 68°48' E 016°33'0 0.0
2018-Feb-16 08:00N 68°48' E 016°33'0 0.0
2018-Feb-16 07:30N 68°48' E 016°33'0 0.0
2018-Feb-16 06:59N 68°48' E 016°33'0 0.0
2018-Feb-16 06:30N 68°48' E 016°33'0 0.0
2018-Feb-16 06:00N 68°48' E 016°33'2 3.9
2018-Feb-16 05:30N 68°49' E 016°37'5 9.3
2018-Feb-16 05:00N 68°52' E 016°47'5 9.4
2018-Feb-16 04:30N 68°55' E 016°57'5 9.4
2018-Feb-16 03:59N 68°58' E 017°07'5 9.6
2018-Feb-16 03:30N 69°01' E 017°17'5 9.6
2018-Feb-16 03:00N 69°05' E 017°24'5 9.4
2018-Feb-16 02:30N 69°07' E 017°36'5 9.7
2018-Feb-16 01:58N 69°09' E 017°50'4 9.5
2018-Feb-16 01:30N 69°11' E 018°00'4 7.7
2018-Feb-16 01:00N 69°15' E 017°58'4 8.9
2018-Feb-16 00:29N 69°19' E 018°01'4 8.4
2018-Feb-16 00:00N 69°23' E 018°06'5 9.2
2018-Feb-15 23:30N 69°28' E 018°07'4 8.9
2018-Feb-15 23:00N 69°30' E 018°18'5 9.1
2018-Feb-15 22:29N 69°32' E 018°31'4 8.7
2018-Feb-15 22:00N 69°33' E 018°42'4 6.9
2018-Feb-15 21:30N 69°35' E 018°50'4 8.9
2018-Feb-15 20:59N 69°39' E 018°58'1 1.1
2018-Feb-15 20:30N 69°39' E 018°58'0 0.0
2018-Feb-15 20:00N 69°39' E 018°58'0 0.0
2018-Feb-15 19:30N 69°39' E 018°58'0 0.0
2018-Feb-15 19:00N 69°39' E 018°58'0 0.0
2018-Feb-15 18:30N 69°39' E 018°58'0 0.0
2018-Feb-15 18:00N 69°39' E 018°58'0 0.0
2018-Feb-15 17:30N 69°39' E 018°58'0 0.0
2018-Feb-15 17:01N 69°39' E 018°58'0 0.0
2018-Feb-15 16:31N 69°39' E 018°58'0 0.0
2018-Feb-15 16:00N 69°39' E 018°58'0 0.0
2018-Feb-15 15:30N 69°39' E 018°58'0 0.0
2018-Feb-15 15:00N 69°39' E 018°58'0 0.2
2018-Feb-15 14:30N 69°39' E 018°58'1 1.2
2018-Feb-15 14:00N 69°40' E 018°59'0 0.1
2018-Feb-15 13:30N 69°40' E 018°59'1 1.0
2018-Feb-15 12:59N 69°40' E 019°00'4 8.4
2018-Feb-15 12:29N 69°44' E 019°05'4 8.0
2018-Feb-15 12:00N 69°47' E 019°13'4 8.7
2018-Feb-15 11:30N 69°50' E 019°22'5 9.0
2018-Feb-15 11:00N 69°54' E 019°28'5 9.0
2018-Feb-15 10:30N 69°57' E 019°37'4 8.2
2018-Feb-15 10:00N 70°01' E 019°42'4 7.0
2018-Feb-15 09:30N 70°03' E 019°50'0 0.4
2018-Feb-15 09:00N 70°03' E 019°49'0 0.0
2018-Feb-15 08:30N 70°03' E 019°49'0 0.0
2018-Feb-15 08:00N 70°03' E 019°49'0 0.0
2018-Feb-15 07:30N 70°03' E 019°49'0 0.0
2018-Feb-15 07:00N 70°03' E 019°49'0 0.0
2018-Feb-15 06:30N 70°03' E 019°49'0 0.0
2018-Feb-15 06:00N 70°03' E 019°49'0 0.0
2018-Feb-15 05:30N 70°03' E 019°49'0 0.0
2018-Feb-15 05:00N 70°03' E 019°49'0 0.0
2018-Feb-15 04:30N 70°03' E 019°49'0 0.0
2018-Feb-15 04:00N 70°03' E 019°49'0 0.0
2018-Feb-15 03:29N 70°03' E 019°49'0 0.0
2018-Feb-15 03:00N 70°03' E 019°49'0 0.0
2018-Feb-15 02:30N 70°03' E 019°49'0 0.0
2018-Feb-15 02:00N 70°03' E 019°49'0 0.0
2018-Feb-15 01:30N 70°03' E 019°49'2 4.7
2018-Feb-15 01:00N 70°02' E 019°43'4 8.8
2018-Feb-15 00:30N 69°58' E 019°40'5 9.1
2018-Feb-15 00:00N 69°55' E 019°30'5 9.0
2018-Feb-14 23:29N 69°51' E 019°24'4 9.0
2018-Feb-14 23:00N 69°47' E 019°16'5 9.7
2018-Feb-14 22:29N 69°44' E 019°05'5 9.3
2018-Feb-14 21:59N 69°40' E 018°59'1 1.2
2018-Feb-14 21:30N 69°40' E 018°58'0 0.0
2018-Feb-14 21:00N 69°40' E 018°58'0 0.0
2018-Feb-14 20:30N 69°40' E 018°58'0 0.0
2018-Feb-14 20:00N 69°40' E 018°58'0 0.0
2018-Feb-14 19:30N 69°40' E 018°58'0 0.0
2018-Feb-14 19:00N 69°40' E 018°58'0 0.0
2018-Feb-14 18:30N 69°40' E 018°58'0 0.0
2018-Feb-14 18:00N 69°40' E 018°58'0 0.0
2018-Feb-14 17:30N 69°40' E 018°58'0 0.0
2018-Feb-14 17:00N 69°40' E 018°58'0 0.0
2018-Feb-14 16:29N 69°40' E 018°58'0 0.0
2018-Feb-14 16:00N 69°40' E 018°58'0 0.0
2018-Feb-14 15:30N 69°40' E 018°58'0 0.0
2018-Feb-14 15:00N 69°40' E 018°58'0 0.0
2018-Feb-14 14:30N 69°40' E 018°58'0 0.0
2018-Feb-14 13:59N 69°40' E 018°58'3 5.5
2018-Feb-14 13:30N 69°42' E 019°02'4 8.5
2018-Feb-14 13:00N 69°45' E 019°09'4 8.7
2018-Feb-14 12:30N 69°47' E 019°20'4 8.6
2018-Feb-14 12:00N 69°48' E 019°32'4 8.3
2018-Feb-14 11:30N 69°49' E 019°44'5 9.0
2018-Feb-14 11:00N 69°44' E 019°45'5 9.0
2018-Feb-14 10:29N 69°40' E 019°45'3 6.4
2018-Feb-14 09:59N 69°37' E 019°44'0 0.0
2018-Feb-14 09:29N 69°37' E 019°44'0 0.0
2018-Feb-14 08:56N 69°37' E 019°44'0 0.0
2018-Feb-14 08:29N 69°37' E 019°44'0 0.0
2018-Feb-14 07:59N 69°37' E 019°44'0 0.0
2018-Feb-14 07:29N 69°37' E 019°44'0 0.0
2018-Feb-14 06:59N 69°37' E 019°44'0 0.0
2018-Feb-14 06:30N 69°37' E 019°44'0 0.0
2018-Feb-14 06:00N 69°37' E 019°44'1 1.7
2018-Feb-14 05:30N 69°37' E 019°45'0 0.5
2018-Feb-14 05:00N 69°38' E 019°45'0 0.9
2018-Feb-14 04:30N 69°38' E 019°46'2 4.6
2018-Feb-14 03:59N 69°40' E 019°45'3 5.7
2018-Feb-14 03:30N 69°43' E 019°46'3 6.0
2018-Feb-14 03:00N 69°46' E 019°48'3 5.6
2018-Feb-14 02:30N 69°48' E 019°52'4 7.4
2018-Feb-14 02:00N 69°52' E 019°57'4 8.8
2018-Feb-14 01:30N 69°55' E 020°03'4 8.8
2018-Feb-14 01:00N 69°58' E 020°13'4 8.5
2018-Feb-14 00:30N 70°00' E 020°24'4 7.8
2018-Feb-14 00:00N 70°01' E 020°35'4 7.8
2018-Feb-13 23:29N 70°03' E 020°46'4 8.3
2018-Feb-13 22:59N 70°05' E 020°56'4 9.0
2018-Feb-13 22:30N 70°09' E 021°02'4 8.5
2018-Feb-13 22:00N 70°13' E 021°07'4 8.2
2018-Feb-13 21:29N 70°16' E 021°16'4 8.9
2018-Feb-13 20:59N 70°19' E 021°26'4 8.9
2018-Feb-13 20:30N 70°22' E 021°35'4 8.6
2018-Feb-13 20:00N 70°24' E 021°45'5 8.9
2018-Feb-13 19:30N 70°25' E 021°58'4 9.1
2018-Feb-13 19:00N 70°27' E 022°11'5 9.5
2018-Feb-13 18:30N 70°28' E 022°25'5 9.6
2018-Feb-13 17:59N 70°29' E 022°39'4 8.7
2018-Feb-13 17:30N 70°30' E 022°51'4 9.0
2018-Feb-13 17:00N 70°33' E 023°03'4 8.9
2018-Feb-13 16:30N 70°35' E 023°13'5 9.1
2018-Feb-13 15:59N 70°38' E 023°24'5 9.3
2018-Feb-13 15:29N 70°40' E 023°38'1 1.8
2018-Feb-13 14:59N 70°40' E 023°40'0 0.0
2018-Feb-13 14:29N 70°40' E 023°40'0 0.0
2018-Feb-13 13:59N 70°40' E 023°40'0 0.0
2018-Feb-13 13:26N 70°40' E 023°40'0 0.0
2018-Feb-13 12:59N 70°40' E 023°40'0 0.0
2018-Feb-13 12:29N 70°40' E 023°40'0 0.0
2018-Feb-13 11:59N 70°40' E 023°40'0 0.0
2018-Feb-13 11:29N 70°40' E 023°40'0 0.0
2018-Feb-13 10:59N 70°40' E 023°40'0 0.0
2018-Feb-13 10:29N 70°40' E 023°40'0 0.0
2018-Feb-13 09:59N 70°40' E 023°40'0 0.0
2018-Feb-13 09:29N 70°40' E 023°40'0 0.0
2018-Feb-13 08:59N 70°40' E 023°40'0 0.0
2018-Feb-13 08:29N 70°40' E 023°40'0 0.0
2018-Feb-13 07:59N 70°40' E 023°40'0 0.3
2018-Feb-13 07:29N 70°40' E 023°40'0 0.0
2018-Feb-13 06:59N 70°40' E 023°40'0 0.0
2018-Feb-13 06:29N 70°40' E 023°40'0 0.0
2018-Feb-13 05:59N 70°40' E 023°40'0 0.0
2018-Feb-13 05:29N 70°40' E 023°40'0 0.0
2018-Feb-13 04:59N 70°40' E 023°40'0 0.0
2018-Feb-13 04:29N 70°40' E 023°40'0 0.0
2018-Feb-13 03:59N 70°40' E 023°40'0 0.0
2018-Feb-13 03:29N 70°40' E 023°40'0 0.0
2018-Feb-13 02:59N 70°40' E 023°40'0 0.0
2018-Feb-13 02:29N 70°40' E 023°40'0 0.0
2018-Feb-13 01:59N 70°40' E 023°40'0 0.0
2018-Feb-13 01:29N 70°40' E 023°40'0 0.0
2018-Feb-13 00:59N 70°40' E 023°40'0 0.0
2018-Feb-13 00:29N 70°40' E 023°40'0 0.0
2018-Feb-12 23:59N 70°40' E 023°40'0 0.0
2018-Feb-12 23:29N 70°40' E 023°40'4 7.5
2018-Feb-12 23:00N 70°37' E 023°36'5 9.4
2018-Feb-12 22:30N 70°32' E 023°38'5 9.2
2018-Feb-12 21:59N 70°27' E 023°40'5 9.6
2018-Feb-12 21:30N 70°23' E 023°33'5 9.5
2018-Feb-12 21:01N 70°20' E 023°24'5 9.0
2018-Feb-12 20:31N 70°16' E 023°16'5 9.1
2018-Feb-12 20:00N 70°12' E 023°08'4 8.9
2018-Feb-12 19:30N 70°08' E 023°07'5 9.2
2018-Feb-12 19:00N 70°03' E 023°08'4 9.1
2018-Feb-12 18:30N 69°59' E 023°12'2 3.1
2018-Feb-12 18:00N 69°58' E 023°13'0 0.0
2018-Feb-12 17:30N 69°58' E 023°13'0 0.0
2018-Feb-12 16:59N 69°58' E 023°13'0 0.0
2018-Feb-12 16:30N 69°58' E 023°13'0 0.0
2018-Feb-12 16:00N 69°58' E 023°13'0 0.0
2018-Feb-12 15:30N 69°58' E 023°13'0 0.0
2018-Feb-12 14:59N 69°58' E 023°13'0 0.0
2018-Feb-12 14:30N 69°58' E 023°13'0 0.0
2018-Feb-12 13:59N 69°58' E 023°13'0 0.0
2018-Feb-12 13:30N 69°58' E 023°13'0 0.0
2018-Feb-12 13:00N 69°58' E 023°13'3 6.0
2018-Feb-12 12:30N 70°00' E 023°11'4 7.4
2018-Feb-12 12:00N 70°04' E 023°08'3 6.2
2018-Feb-12 11:30N 70°07' E 023°07'4 7.5
2018-Feb-12 11:00N 70°11' E 023°08'4 7.7
2018-Feb-12 10:29N 70°15' E 023°13'4 8.3
2018-Feb-12 10:00N 70°18' E 023°20'4 8.3
2018-Feb-12 09:30N 70°21' E 023°28'4 8.1
2018-Feb-12 09:00N 70°24' E 023°35'  

Dump ship's entire track history